Time;durP1;ratioP1;P1;durP2;ratioP2;P2;SDS_P1;SDS_P2;PMS_P1;PMS_P2;Temp;Humidity;BMP_temperature;BMP_pressure;BME280_temperature;BME280_humidity;BME280_pressure;Samples;Min_cycle;Max_cycle;Signal;HPM_P1;HPM_P2
2023/03/04 00:02:23;;;;;;;22.37;16.67;;;4.60;67.00;;;;;;5082558;28;20737;-83
2023/03/04 00:04:49;;;;;;;20.23;16.20;;;4.60;67.40;;;;;;5081436;28;20298;-85
2023/03/04 00:07:15;;;;;;;18.47;15.30;;;4.60;67.40;;;;;;5080718;28;20179;-82
2023/03/04 00:09:45;;;;;;;21.80;15.97;;;4.60;67.70;;;;;;5081386;28;20642;-84
2023/03/04 00:12:11;;;;;;;17.67;15.33;;;4.60;67.20;;;;;;5081236;28;20218;-84
2023/03/04 00:14:36;;;;;;;19.57;17.00;;;4.60;67.40;;;;;;5094796;28;20583;-82
2023/03/04 00:17:03;;;;;;;19.60;16.63;;;4.60;66.60;;;;;;5100119;28;20175;-84
2023/03/04 00:19:30;;;;;;;33.43;27.23;;;4.50;68.00;;;;;;5098312;28;20734;-83
2023/03/04 00:21:56;;;;;;;34.90;29.27;;;4.60;67.60;;;;;;5086029;28;20195;-84
2023/03/04 00:24:21;;;;;;;28.40;24.37;;;4.50;67.80;;;;;;5091131;28;20229;-85
2023/03/04 00:26:47;;;;;;;25.30;22.50;;;4.50;68.20;;;;;;5091590;28;20251;-85
2023/03/04 00:29:12;;;;;;;26.23;22.30;;;4.40;66.50;;;;;;5097271;28;20195;-85
2023/03/04 00:31:38;;;;;;;21.87;18.57;;;4.30;67.70;;;;;;5111734;28;20167;-84
2023/03/04 00:34:04;;;;;;;23.53;18.57;;;4.40;68.80;;;;;;5120384;28;20181;-85
2023/03/04 00:36:29;;;;;;;24.93;20.13;;;4.50;68.50;;;;;;5108692;28;20704;-83
2023/03/04 00:38:55;;;;;;;23.07;18.63;;;4.50;67.50;;;;;;5101710;28;20179;-83
2023/03/04 00:41:20;;;;;;;23.10;18.97;;;4.40;68.00;;;;;;5088418;28;20246;-84
2023/03/04 00:43:46;;;;;;;25.20;18.87;;;4.50;68.00;;;;;;5080132;28;20226;-83
2023/03/04 00:46:12;;;;;;;21.03;18.40;;;4.50;67.80;;;;;;5079755;28;20201;-84
2023/03/04 00:48:38;;;;;;;21.33;18.90;;;4.40;68.20;;;;;;5082872;28;20203;-85
2023/03/04 00:51:04;;;;;;;22.60;17.03;;;4.30;68.00;;;;;;5081094;28;20297;-85
2023/03/04 00:53:29;;;;;;;22.40;18.83;;;4.40;67.70;;;;;;5079988;28;20191;-84
2023/03/04 00:55:55;;;;;;;23.00;18.20;;;4.20;67.90;;;;;;5078827;28;20179;-85
2023/03/04 00:58:20;;;;;;;25.60;20.53;;;4.10;68.50;;;;;;5079666;28;20263;-82
2023/03/04 01:00:46;;;;;;;25.23;19.83;;;3.90;69.30;;;;;;5079759;28;20255;-84
2023/03/04 01:03:12;;;;;;;21.37;17.57;;;3.80;70.10;;;;;;5080230;28;20278;-84
2023/03/04 01:05:37;;;;;;;21.77;17.43;;;3.90;70.90;;;;;;5100370;28;20178;-84
2023/03/04 01:08:04;;;;;;;21.83;17.77;;;4.00;70.40;;;;;;5099997;28;20746;-84
2023/03/04 01:10:30;;;;;;;25.13;18.60;;;4.10;70.20;;;;;;5086924;28;20198;-83
2023/03/04 01:12:56;;;;;;;23.27;17.40;;;3.90;68.50;;;;;;5078100;28;20219;-84
2023/03/04 01:15:22;;;;;;;20.00;16.53;;;3.80;70.20;;;;;;5076130;28;20207;-85
2023/03/04 01:17:48;;;;;;;23.27;17.97;;;3.80;70.90;;;;;;5078196;28;20443;-85
2023/03/04 01:20:14;;;;;;;23.57;19.63;;;3.80;70.80;;;;;;5080689;28;20222;-84
2023/03/04 01:22:39;;;;;;;25.90;20.50;;;3.80;69.60;;;;;;5078123;28;20245;-85
2023/03/04 01:25:06;;;;;;;22.57;19.23;;;3.70;71.70;;;;;;5077893;28;20266;-84
2023/03/04 01:27:31;;;;;;;22.20;17.10;;;3.80;72.10;;;;;;5079651;28;20179;-82
2023/03/04 01:29:57;;;;;;;19.73;17.33;;;3.80;70.50;;;;;;5103021;28;20301;-85
2023/03/04 01:32:22;;;;;;;21.97;17.60;;;3.90;70.40;;;;;;5105336;28;20234;-84
2023/03/04 01:34:48;;;;;;;23.53;17.37;;;3.90;69.70;;;;;;5090145;28;20187;-85
2023/03/04 01:37:14;;;;;;;24.63;18.57;;;3.80;69.30;;;;;;5078733;28;20202;-86
2023/03/04 01:39:39;;;;;;;22.80;18.90;;;3.80;68.60;;;;;;5079873;28;20179;-84
2023/03/04 01:42:11;;;;;;;23.83;20.50;;;3.80;69.40;;;;;;5063854;28;20275;-84
2023/03/04 01:44:37;;;;;;;27.30;21.80;;;3.90;70.00;;;;;;5092873;28;20179;-84
2023/03/04 01:47:02;;;;;;;38.17;29.10;;;3.90;69.70;;;;;;5100007;28;20203;-85
2023/03/04 01:49:28;;;;;;;43.93;34.20;;;3.70;70.10;;;;;;5099996;28;20210;-84
2023/03/04 01:51:54;;;;;;;26.03;22.10;;;3.60;71.40;;;;;;5100306;28;20202;-84
2023/03/04 01:54:21;;;;;;;28.73;24.07;;;3.60;72.90;;;;;;5100459;28;20190;-85
2023/03/04 01:56:50;;;;;;;32.33;22.87;;;3.60;70.60;;;;;;5100599;28;20261;-84
2023/03/04 01:59:20;;;;;;;29.63;23.40;;;3.60;71.00;;;;;;5093292;28;20180;-83
2023/03/04 02:01:58;;;;;;;32.90;22.53;;;3.70;71.70;;;;;;5080179;28;20202;-83
2023/03/04 02:04:27;;;;;;;29.13;21.77;;;3.70;72.00;;;;;;5079937;28;20171;-84
2023/03/04 02:06:54;;;;;;;32.53;24.80;;;3.70;71.00;;;;;;5061850;28;20246;-84
2023/03/04 02:09:20;;;;;;;28.13;23.37;;;3.70;70.50;;;;;;5078193;28;20202;-84
2023/03/04 02:11:48;;;;;;;31.33;23.93;;;3.70;70.40;;;;;;5078436;28;20482;-85
2023/03/04 02:14:14;;;;;;;31.60;26.17;;;3.60;70.60;;;;;;5079366;28;20689;-84
2023/03/04 02:16:40;;;;;;;34.57;26.40;;;3.60;71.00;;;;;;5080538;28;20171;-85
2023/03/04 02:19:16;;;;;;;29.53;24.10;;;3.70;71.00;;;;;;5092187;28;20185;-85
2023/03/04 02:21:41;;;;;;;33.50;24.93;;;3.60;70.90;;;;;;5081931;28;20553;-86
2023/03/04 02:24:29;;;;;;;30.20;23.40;;;3.60;71.00;;;;;;5080151;28;20194;-84
2023/03/04 02:26:55;;;;;;;25.73;21.40;;;3.70;70.10;;;;;;5079649;28;20260;-85
2023/03/04 02:29:21;;;;;;;31.70;24.10;;;3.50;71.30;;;;;;5078734;28;20207;-85
2023/03/04 02:31:52;;;;;;;29.30;24.63;;;3.40;70.80;;;;;;5079747;28;20258;-83
2023/03/04 02:34:22;;;;;;;31.07;22.60;;;3.40;70.50;;;;;;5057973;28;20195;-85
2023/03/04 02:36:51;;;;;;;30.30;22.53;;;3.30;71.00;;;;;;5078466;28;20343;-83
2023/03/04 02:39:19;;;;;;;33.67;25.47;;;3.30;71.20;;;;;;5078971;28;20322;-84
2023/03/04 02:41:49;;;;;;;34.07;24.93;;;3.30;70.00;;;;;;5078344;28;20197;-85
2023/03/04 02:44:19;;;;;;;30.87;23.17;;;3.30;71.50;;;;;;5079032;28;20689;-84
2023/03/04 02:46:46;;;;;;;35.70;25.67;;;3.30;71.80;;;;;;5077011;28;20176;-84
2023/03/04 02:49:12;;;;;;;32.03;24.97;;;3.30;73.10;;;;;;5061739;28;20213;-85
2023/03/04 02:51:38;;;;;;;35.40;26.63;;;3.30;73.50;;;;;;5079384;28;20207;-85
2023/03/04 02:54:04;;;;;;;38.17;27.23;;;3.40;73.20;;;;;;5080557;28;20226;-85
2023/03/04 02:56:29;;;;;;;40.10;28.87;;;3.40;72.90;;;;;;5078013;28;20180;-85
2023/03/04 02:58:55;;;;;;;35.27;27.27;;;3.40;71.80;;;;;;5079278;28;20257;-84
2023/03/04 03:01:21;;;;;;;37.67;26.87;;;3.40;72.50;;;;;;5078870;28;20183;-85
2023/03/04 03:03:46;;;;;;;32.30;23.80;;;3.40;72.60;;;;;;5078768;28;20210;-84
2023/03/04 03:06:12;;;;;;;37.93;27.03;;;3.50;72.90;;;;;;5079781;28;20186;-85
2023/03/04 03:08:37;;;;;;;36.33;26.57;;;3.40;72.40;;;;;;5078993;28;20207;-84
2023/03/04 03:11:03;;;;;;;33.57;25.60;;;3.40;73.40;;;;;;5080009;28;20270;-84
2023/03/04 03:13:29;;;;;;;34.87;25.73;;;3.50;72.90;;;;;;5075903;28;20227;-83
2023/03/04 03:15:55;;;;;;;37.43;25.60;;;3.40;72.10;;;;;;5076870;28;20172;-85
2023/03/04 03:18:20;;;;;;;35.07;26.27;;;3.40;72.00;;;;;;5078110;28;20608;-84
2023/03/04 03:20:46;;;;;;;39.23;26.80;;;3.40;71.50;;;;;;5073921;28;20526;-84
2023/03/04 03:23:12;;;;;;;36.90;27.50;;;3.40;71.80;;;;;;5072653;28;20191;-83
2023/03/04 03:25:38;;;;;;;35.90;25.53;;;3.40;71.40;;;;;;5099235;28;20175;-85
2023/03/04 03:28:03;;;;;;;32.87;25.77;;;3.40;71.30;;;;;;5075189;28;20202;-84
2023/03/04 03:30:29;;;;;;;32.63;24.67;;;3.30;69.40;;;;;;5079175;28;20211;-83
2023/03/04 03:32:55;;;;;;;40.60;29.13;;;3.10;71.00;;;;;;5077687;28;20253;-85
2023/03/04 03:35:20;;;;;;;43.10;29.57;;;3.10;70.70;;;;;;5078065;28;20267;-83
2023/03/04 03:37:48;;;;;;;42.87;30.80;;;2.90;71.50;;;;;;5078383;28;20726;-83
2023/03/04 03:40:14;;;;;;;43.07;28.83;;;2.80;72.90;;;;;;5064169;28;20214;-84
2023/03/04 03:42:39;;;;;;;36.63;26.93;;;2.80;73.60;;;;;;5093543;28;20260;-85
2023/03/04 03:45:05;;;;;;;43.13;28.53;;;2.90;74.20;;;;;;5107881;28;20187;-84
2023/03/04 03:47:31;;;;;;;44.07;29.43;;;2.90;74.50;;;;;;5105533;28;20182;-84
2023/03/04 03:49:57;;;;;;;37.23;26.17;;;2.80;72.80;;;;;;5099694;28;20735;-85
2023/03/04 03:52:22;;;;;;;44.50;28.47;;;2.90;73.20;;;;;;5098525;28;20542;-85
2023/03/04 03:54:48;;;;;;;35.20;26.23;;;2.80;72.60;;;;;;5080812;28;20514;-84
2023/03/04 03:57:14;;;;;;;36.43;26.73;;;2.80;72.20;;;;;;5087893;28;20226;-84
2023/03/04 03:59:39;;;;;;;35.00;26.50;;;2.80;72.10;;;;;;5082468;28;20181;-85
2023/03/04 04:02:05;;;;;;;34.43;25.17;;;2.80;72.50;;;;;;5080767;28;20200;-84
2023/03/04 04:04:31;;;;;;;34.27;26.07;;;2.60;72.40;;;;;;5079035;28;20198;-84
2023/03/04 04:06:57;;;;;;;37.03;26.47;;;2.60;72.20;;;;;;5077612;28;20182;-84
2023/03/04 04:09:22;;;;;;;38.20;27.13;;;2.50;72.80;;;;;;5077486;28;20223;-83
2023/03/04 04:11:48;;;;;;;38.50;26.40;;;2.50;72.30;;;;;;5077976;28;20172;-84
2023/03/04 04:14:13;;;;;;;32.50;24.87;;;2.40;72.80;;;;;;5079648;28;20716;-84
2023/03/04 04:16:39;;;;;;;35.73;24.60;;;2.40;73.10;;;;;;5077666;28;20191;-84
2023/03/04 04:19:05;;;;;;;33.27;24.10;;;2.40;73.10;;;;;;5081120;28;20270;-84
2023/03/04 04:21:31;;;;;;;36.13;24.70;;;2.40;73.30;;;;;;5069328;28;20190;-83
2023/03/04 04:23:56;;;;;;;36.33;25.57;;;2.40;72.50;;;;;;5059034;28;20181;-83
2023/03/04 04:26:22;;;;;;;41.07;27.17;;;2.40;72.70;;;;;;5071193;28;20927;-84
2023/03/04 04:28:48;;;;;;;37.70;27.97;;;2.50;74.30;;;;;;5076796;28;20264;-83
2023/03/04 04:31:14;;;;;;;40.17;28.40;;;2.50;74.90;;;;;;5074630;28;20206;-83
2023/03/04 04:33:39;;;;;;;37.27;25.97;;;2.60;73.70;;;;;;5096393;28;20215;-84
2023/03/04 04:36:05;;;;;;;36.60;25.60;;;2.50;72.10;;;;;;5099792;28;20266;-83
2023/03/04 04:38:31;;;;;;;40.57;28.23;;;2.50;72.50;;;;;;5100180;28;20195;-84
2023/03/04 04:40:58;;;;;;;35.73;24.97;;;2.40;70.80;;;;;;5099690;28;20222;-83
2023/03/04 04:43:24;;;;;;;32.67;23.97;;;2.30;72.20;;;;;;5098964;28;20716;-85
2023/03/04 04:45:50;;;;;;;37.80;26.27;;;2.20;71.80;;;;;;5101198;28;20208;-83
2023/03/04 04:48:24;;;;;;;41.13;27.57;;;2.20;71.80;;;;;;5100211;28;20213;-82
2023/03/04 04:50:55;;;;;;;36.93;25.77;;;2.10;71.40;;;;;;5101819;28;20184;-84
2023/03/04 04:53:20;;;;;;;35.43;25.80;;;2.10;72.20;;;;;;5107011;28;20253;-85
2023/03/04 04:55:46;;;;;;;35.23;24.27;;;2.10;72.10;;;;;;5119021;28;20203;-84
2023/03/04 04:58:11;;;;;;;37.80;26.23;;;2.20;72.50;;;;;;5119335;28;20186;-85
2023/03/04 05:00:37;;;;;;;40.90;26.60;;;2.20;71.60;;;;;;5115405;28;20653;-83
2023/03/04 05:03:02;;;;;;;40.17;26.73;;;2.30;72.20;;;;;;5100600;28;20187;-85
2023/03/04 05:05:28;;;;;;;40.33;28.40;;;2.30;72.90;;;;;;5082646;28;20717;-84
2023/03/04 05:07:54;;;;;;;43.63;29.30;;;2.20;72.90;;;;;;5100332;28;20175;-85
2023/03/04 05:10:19;;;;;;;40.00;26.13;;;2.20;73.00;;;;;;5086600;28;20203;-85
2023/03/04 05:12:45;;;;;;;42.67;27.93;;;2.20;74.60;;;;;;5078725;28;20191;-83
2023/03/04 05:15:11;;;;;;;38.30;27.47;;;2.30;75.20;;;;;;5061225;28;20176;-84
2023/03/04 05:17:36;;;;;;;42.10;29.43;;;2.30;74.60;;;;;;5081050;28;20684;-82
2023/03/04 05:20:03;;;;;;;40.53;27.50;;;2.30;74.10;;;;;;5080843;28;20179;-83
2023/03/04 05:22:28;;;;;;;40.40;28.27;;;2.30;74.10;;;;;;5072625;28;20211;-84
2023/03/04 05:24:54;;;;;;;40.37;28.30;;;2.30;74.10;;;;;;5080427;28;20168;-84
2023/03/04 05:27:20;;;;;;;46.53;30.60;;;2.20;74.40;;;;;;5080725;28;20199;-83
2023/03/04 05:29:46;;;;;;;40.93;27.47;;;2.20;73.80;;;;;;5080436;28;20207;-84
2023/03/04 05:32:12;;;;;;;40.83;26.27;;;2.20;74.20;;;;;;5081059;28;20231;-83
2023/03/04 05:34:37;;;;;;;40.40;26.57;;;2.30;74.50;;;;;;5081644;28;20171;-82
2023/03/04 05:37:03;;;;;;;40.03;26.53;;;2.30;73.80;;;;;;5090058;28;20430;-83
2023/03/04 05:39:29;;;;;;;35.73;26.03;;;2.20;72.10;;;;;;5090823;28;20183;-86
2023/03/04 05:41:54;;;;;;;40.17;25.67;;;2.00;72.10;;;;;;5072614;28;20235;-84
2023/03/04 05:44:20;;;;;;;38.23;25.97;;;1.90;71.90;;;;;;5083404;28;20172;-85
2023/03/04 05:46:46;;;;;;;39.37;27.67;;;1.90;72.80;;;;;;5079885;28;20188;-84
2023/03/04 05:49:11;;;;;;;42.53;27.07;;;1.90;72.80;;;;;;5078083;28;20199;-86
2023/03/04 05:51:37;;;;;;;36.80;25.23;;;1.90;72.70;;;;;;5079710;28;20542;-84
2023/03/04 05:54:02;;;;;;;35.67;25.60;;;1.90;72.40;;;;;;5077535;28;20196;-85
2023/03/04 05:56:29;;;;;;;43.43;25.70;;;1.80;72.50;;;;;;5058947;28;20179;-84
2023/03/04 05:58:57;;;;;;;37.30;25.10;;;1.80;72.30;;;;;;5081332;28;20202;-84
2023/03/04 06:01:23;;;;;;;35.47;23.50;;;1.70;72.50;;;;;;5083768;28;20176;-84
2023/03/04 06:03:49;;;;;;;39.57;26.63;;;1.70;73.00;;;;;;5079168;28;20200;-82
2023/03/04 06:06:15;;;;;;;40.30;26.60;;;1.70;72.70;;;;;;5095159;28;20708;-83
2023/03/04 06:08:41;;;;;;;37.33;25.87;;;1.70;72.30;;;;;;5097391;28;20356;-85
2023/03/04 06:11:07;;;;;;;40.43;26.10;;;1.60;72.30;;;;;;5099432;28;20176;-84
2023/03/04 06:13:33;;;;;;;39.03;26.67;;;1.60;72.40;;;;;;5099298;28;20194;-84
2023/03/04 06:15:59;;;;;;;37.87;25.90;;;1.60;72.40;;;;;;5100821;28;20179;-84
2023/03/04 06:18:26;;;;;;;38.23;25.13;;;1.60;72.60;;;;;;5084720;28;20533;-85
2023/03/04 06:20:57;;;;;;;37.13;25.33;;;1.50;72.70;;;;;;5072845;28;20176;-84
2023/03/04 06:23:23;;;;;;;36.23;26.50;;;1.60;72.50;;;;;;5090655;28;20210;-84
2023/03/04 06:25:54;;;;;;;38.17;25.63;;;1.60;72.50;;;;;;5093944;28;20187;-84
2023/03/04 06:28:20;;;;;;;39.67;26.57;;;1.60;72.00;;;;;;5078702;28;20224;-85
2023/03/04 06:30:46;;;;;;;32.37;24.10;;;1.70;72.20;;;;;;5079156;28;20179;-83
2023/03/04 06:33:11;;;;;;;41.20;26.83;;;1.60;73.20;;;;;;5060363;28;20246;-84
2023/03/04 06:35:37;;;;;;;46.40;27.63;;;1.60;72.40;;;;;;5061749;28;20585;-83
2023/03/04 06:38:02;;;;;;;36.57;25.40;;;1.60;71.40;;;;;;5079158;28;20179;-84
2023/03/04 06:40:28;;;;;;;37.03;25.20;;;1.60;72.30;;;;;;5080105;28;20188;-84
2023/03/04 06:42:54;;;;;;;42.30;26.80;;;1.60;72.60;;;;;;5091317;28;20229;-85
2023/03/04 06:45:19;;;;;;;38.40;25.47;;;1.70;72.80;;;;;;5098757;28;20179;-83
2023/03/04 06:47:45;;;;;;;35.83;25.73;;;1.70;73.20;;;;;;5079584;28;20187;-85
2023/03/04 06:50:12;;;;;;;37.37;25.60;;;1.70;72.60;;;;;;5098908;28;20202;-84
2023/03/04 06:52:39;;;;;;;38.10;25.53;;;1.60;72.70;;;;;;5098555;28;20201;-85
2023/03/04 06:55:05;;;;;;;43.33;27.13;;;1.60;73.20;;;;;;5098288;28;20175;-84
2023/03/04 06:57:31;;;;;;;44.87;29.00;;;1.60;73.90;;;;;;5097669;28;20216;-84
2023/03/04 06:59:56;;;;;;;37.83;26.83;;;1.60;73.80;;;;;;5101447;28;20341;-84
2023/03/04 07:02:22;;;;;;;43.40;26.87;;;1.60;74.80;;;;;;5082077;28;20207;-83
2023/03/04 07:04:48;;;;;;;42.67;27.07;;;1.60;74.00;;;;;;5088513;28;20186;-83
2023/03/04 07:07:14;;;;;;;38.80;26.77;;;1.60;74.40;;;;;;5103950;28;20200;-82
2023/03/04 07:09:40;;;;;;;37.77;25.47;;;1.70;74.70;;;;;;5096668;28;20210;-82
2023/03/04 07:12:05;;;;;;;44.73;28.43;;;1.70;73.80;;;;;;5078468;28;20215;-84
2023/03/04 07:14:31;;;;;;;42.97;28.00;;;1.60;74.50;;;;;;5077648;28;20180;-85
2023/03/04 07:16:57;;;;;;;44.20;29.30;;;1.50;77.00;;;;;;5077559;28;20234;-85
2023/03/04 07:19:23;;;;;;;49.47;35.47;;;1.60;77.80;;;;;;5060453;28;20183;-85
2023/03/04 07:21:49;;;;;;;43.00;27.73;;;1.70;77.50;;;;;;5079482;28;20171;-84
2023/03/04 07:24:14;;;;;;;55.07;29.60;;;1.80;77.50;;;;;;5080160;28;20184;-84
2023/03/04 07:26:40;;;;;;;51.13;30.97;;;1.70;77.80;;;;;;5068937;28;20183;-84
2023/03/04 07:29:05;;;;;;;50.73;31.03;;;1.60;80.00;;;;;;5098905;28;20217;-83
2023/03/04 07:31:33;;;;;;;57.60;33.93;;;1.40;82.40;;;;;;5099315;28;20232;-82
2023/03/04 07:34:05;;;;;;;45.70;31.07;;;1.40;83.80;;;;;;5097840;28;20225;-85
2023/03/04 07:36:32;;;;;;;50.13;32.93;;;1.50;85.50;;;;;;5098557;28;20210;-84
2023/03/04 07:38:58;;;;;;;49.00;30.57;;;1.60;85.60;;;;;;5088475;28;20183;-83
2023/03/04 07:41:25;;;;;;;49.87;31.93;;;1.80;86.40;;;;;;5082546;28;20222;-84
2023/03/04 07:43:51;;;;;;;59.63;35.63;;;1.90;85.70;;;;;;5080517;28;20417;-86
2023/03/04 07:46:18;;;;;;;42.80;29.43;;;1.90;85.60;;;;;;5083411;28;20218;-84
2023/03/04 07:48:44;;;;;;;47.60;29.37;;;1.90;86.00;;;;;;5082156;28;20218;-86
2023/03/04 07:51:11;;;;;;;44.27;28.93;;;2.00;85.60;;;;;;5082668;28;20403;-84
2023/03/04 07:53:39;;;;;;;48.23;30.87;;;2.00;85.50;;;;;;5083268;28;20218;-85
2023/03/04 07:56:06;;;;;;;50.07;32.23;;;1.90;87.50;;;;;;5081530;28;20183;-85
2023/03/04 07:58:32;;;;;;;46.73;30.10;;;1.90;88.00;;;;;;5064302;28;20230;-85
2023/03/04 08:00:57;;;;;;;48.93;34.47;;;2.10;88.90;;;;;;5082340;28;20192;-84
2023/03/04 08:03:23;;;;;;;49.20;32.03;;;2.20;89.00;;;;;;5086503;28;20203;-85
2023/03/04 08:05:50;;;;;;;45.27;30.47;;;2.30;88.60;;;;;;5103399;28;20182;-85
2023/03/04 08:08:16;;;;;;;50.13;31.10;;;2.30;90.60;;;;;;5103156;28;20285;-86
2023/03/04 08:10:42;;;;;;;43.97;29.83;;;2.30;90.90;;;;;;5070457;28;20582;-85
2023/03/04 08:13:08;;;;;;;50.43;29.80;;;2.40;91.60;;;;;;5063004;28;20210;-85
2023/03/04 08:15:34;;;;;;;44.20;29.03;;;2.40;92.30;;;;;;5083610;28;20191;-81
2023/03/04 08:18:00;;;;;;;42.80;28.90;;;2.50;91.60;;;;;;5079025;28;20645;-81
2023/03/04 08:20:26;;;;;;;48.37;30.47;;;2.70;91.70;;;;;;5078797;28;20203;-81
2023/03/04 08:22:52;;;;;;;45.63;31.13;;;2.80;88.70;;;;;;5063206;28;20196;-81
2023/03/04 08:25:18;;;;;;;44.70;30.50;;;2.90;89.00;;;;;;5079550;28;20182;-82
2023/03/04 08:27:43;;;;;;;41.57;28.13;;;2.90;88.80;;;;;;5081564;28;20317;-80
2023/03/04 08:30:10;;;;;;;39.67;26.17;;;3.00;86.90;;;;;;5095159;28;20206;-80
2023/03/04 08:32:36;;;;;;;36.00;25.30;;;3.10;85.90;;;;;;5101616;28;20258;-84
2023/03/04 08:35:01;;;;;;;37.53;26.77;;;3.20;85.00;;;;;;5103748;28;20179;-82
2023/03/04 08:37:28;;;;;;;36.77;25.93;;;3.20;85.10;;;;;;5104676;28;20175;-83
2023/03/04 08:39:54;;;;;;;36.10;25.17;;;3.30;85.60;;;;;;5102586;28;20242;-81
2023/03/04 08:42:20;;;;;;;35.03;25.53;;;3.10;86.10;;;;;;5085108;28;20230;-82
2023/03/04 08:44:45;;;;;;;36.10;26.97;;;3.20;86.40;;;;;;5097133;28;20179;-82
2023/03/04 08:47:11;;;;;;;35.93;24.80;;;3.50;85.30;;;;;;5101718;28;20187;-84
2023/03/04 08:49:37;;;;;;;36.77;27.03;;;3.70;83.70;;;;;;5102405;28;20207;-85
2023/03/04 08:52:03;;;;;;;37.23;25.40;;;3.80;83.80;;;;;;5104284;28;20199;-81
2023/03/04 08:54:29;;;;;;;39.87;25.70;;;3.90;83.10;;;;;;5104796;28;20242;-85
2023/03/04 08:56:55;;;;;;;35.23;26.27;;;4.00;83.60;;;;;;5101243;28;20273;-84
2023/03/04 08:59:20;;;;;;;32.10;25.20;;;4.10;82.80;;;;;;5103768;28;20190;-81
2023/03/04 09:01:46;;;;;;;36.77;25.43;;;4.20;79.60;;;;;;5106041;28;20186;-81
2023/03/04 09:04:11;;;;;;;34.97;24.80;;;4.30;79.00;;;;;;5093716;28;20188;-80
2023/03/04 09:06:37;;;;;;;35.73;25.83;;;4.40;77.50;;;;;;5066036;28;20190;-87
2023/03/04 09:09:04;;;;;;;35.93;26.43;;;4.30;77.40;;;;;;5084675;28;20271;-86
2023/03/04 09:11:30;;;;;;;35.70;26.47;;;4.30;77.90;;;;;;5085505;28;20171;-85
2023/03/04 09:13:56;;;;;;;37.17;27.03;;;4.50;76.50;;;;;;5083475;28;20198;-86
2023/03/04 09:16:22;;;;;;;39.50;28.07;;;4.50;74.80;;;;;;5086141;28;20195;-85
2023/03/04 09:18:47;;;;;;;34.10;26.43;;;4.30;75.60;;;;;;5095141;28;20196;-85
2023/03/04 09:21:13;;;;;;;34.33;26.43;;;4.10;76.90;;;;;;5090782;28;20634;-80
2023/03/04 09:23:39;;;;;;;38.53;27.43;;;4.20;78.20;;;;;;5083747;28;20565;-81
2023/03/04 09:26:15;;;;;;;38.60;28.57;;;4.30;77.50;;;;;;5082439;28;20205;-82
2023/03/04 09:28:41;;;;;;;41.37;28.57;;;4.30;75.60;;;;;;5066648;28;20302;-82
2023/03/04 09:31:11;;;;;;;42.30;30.37;;;4.30;77.50;;;;;;5065823;28;20190;-81
2023/03/04 09:33:37;;;;;;;35.87;27.93;;;4.40;76.80;;;;;;5082987;28;20260;-80
2023/03/04 09:36:03;;;;;;;34.00;27.93;;;4.40;76.50;;;;;;5084197;28;20172;-85
2023/03/04 09:38:29;;;;;;;39.07;29.57;;;4.60;76.60;;;;;;5065799;28;20198;-79
2023/03/04 09:41:06;;;;;;;42.00;29.63;;;4.90;74.90;;;;;;5080743;28;20255;-83
2023/03/04 09:43:33;;;;;;;41.17;29.73;;;5.10;74.00;;;;;;5090435;28;20343;-81
2023/03/04 09:46:05;;;;;;;37.90;31.30;;;5.10;71.50;;;;;;5103819;28;20175;-80
2023/03/04 09:48:42;;;;;;;50.47;32.23;;;5.20;72.10;;;;;;5088259;28;20172;-82
2023/03/04 09:51:19;;;;;;;41.20;31.43;;;5.30;70.00;;;;;;5079875;28;20701;-84
2023/03/04 09:54:22;;;;;;;44.23;32.03;;;5.10;70.90;;;;;;5079429;28;20199;-81
2023/03/04 09:56:50;;;;;;;44.07;31.73;;;5.20;71.90;;;;;;5073121;28;20230;-83
2023/03/04 09:59:52;;;;;;;44.00;31.37;;;5.20;71.00;;;;;;5101477;28;20190;-83
2023/03/04 10:02:54;;;;;;;42.07;32.67;;;5.00;72.30;;;;;;5030413;28;20241;-82
2023/03/04 10:05:22;;;;;;;41.90;31.93;;;5.00;73.40;;;;;;5069212;28;20202;-78
2023/03/04 10:07:56;;;;;;;43.87;32.50;;;5.00;73.90;;;;;;5083730;28;20175;-84
2023/03/04 10:10:29;;;;;;;43.37;32.50;;;5.30;71.30;;;;;;5084013;28;20203;-84
2023/03/04 10:12:56;;;;;;;44.20;33.37;;;5.40;70.90;;;;;;5102949;28;20202;-81
2023/03/04 10:15:29;;;;;;;43.17;32.93;;;5.50;69.40;;;;;;5101767;28;20200;-80
2023/03/04 10:18:02;;;;;;;42.17;32.70;;;5.30;69.80;;;;;;5103882;28;20175;-81
2023/03/04 10:20:58;;;;;;;43.27;34.20;;;4.90;72.10;;;;;;5099492;28;20184;-81
2023/03/04 10:23:26;;;;;;;45.83;34.60;;;4.90;72.90;;;;;;5032554;28;20216;-82
2023/03/04 10:25:53;;;;;;;49.47;38.93;;;5.10;73.10;;;;;;5067436;28;20191;-80
2023/03/04 10:28:29;;;;;;;44.90;33.73;;;5.10;70.70;;;;;;5091755;28;20204;-80
2023/03/04 10:31:00;;;;;;;47.77;32.63;;;5.20;70.90;;;;;;5098005;28;20190;-79
2023/03/04 10:33:44;;;;;;;45.47;31.87;;;5.20;71.10;;;;;;5100452;28;20239;-84
2023/03/04 10:36:25;;;;;;;42.87;31.73;;;5.60;67.90;;;;;;5100540;28;20210;-84
2023/03/04 10:39:21;;;;;;;40.43;31.47;;;5.80;66.80;;;;;;5086504;28;20384;-85
2023/03/04 10:42:00;;;;;;;40.27;31.47;;;6.00;65.40;;;;;;5094937;28;20277;-86
2023/03/04 10:44:27;;;;;;;48.23;31.80;;;6.00;64.70;;;;;;5081684;28;20205;-87
2023/03/04 10:46:55;;;;;;;41.50;31.80;;;6.00;65.10;;;;;;5084419;28;20186;-86
2023/03/04 10:49:21;;;;;;;43.97;33.20;;;5.80;64.60;;;;;;5085068;28;20207;-85
2023/03/04 10:52:01;;;;;;;41.03;31.10;;;5.70;65.80;;;;;;5090884;28;20239;-87
2023/03/04 10:54:48;;;;;;;43.90;31.37;;;5.70;66.50;;;;;;5092435;28;20243;-87
2023/03/04 10:57:22;;;;;;;41.13;30.40;;;5.70;65.80;;;;;;5091440;28;20176;-85
2023/03/04 10:59:59;;;;;;;37.90;28.27;;;5.70;64.90;;;;;;5089453;28;20249;-86
2023/03/04 11:02:31;;;;;;;43.83;29.03;;;5.60;64.70;;;;;;5087714;28;20225;-86
2023/03/04 11:05:16;;;;;;;38.40;27.40;;;5.40;66.40;;;;;;5086284;28;20183;-86
2023/03/04 11:07:58;;;;;;;41.57;27.47;;;5.30;66.90;;;;;;5087811;28;20171;-85
2023/03/04 11:10:36;;;;;;;39.17;27.70;;;5.30;66.20;;;;;;5090974;28;20210;-86
2023/03/04 11:13:11;;;;;;;40.87;29.20;;;5.30;66.70;;;;;;5089366;28;20195;-84
2023/03/04 11:15:54;;;;;;;38.07;27.23;;;5.20;66.70;;;;;;5090548;28;20179;-87
2023/03/04 11:18:29;;;;;;;37.50;27.70;;;5.30;67.10;;;;;;5072334;28;20183;-88
2023/03/04 11:20:56;;;;;;;35.20;26.23;;;5.30;66.30;;;;;;5092534;28;20660;-86
2023/03/04 11:23:42;;;;;;;39.53;27.00;;;5.20;66.80;;;;;;5111180;28;20230;-86
2023/03/04 11:26:15;;;;;;;41.57;27.77;;;5.20;67.20;;;;;;5109751;28;20612;-84
2023/03/04 11:29:01;;;;;;;40.00;27.70;;;5.40;67.00;;;;;;5098370;28;20428;-86
2023/03/04 11:31:38;;;;;;;48.77;40.00;;;5.40;66.40;;;;;;5088949;28;20243;-86
2023/03/04 11:34:12;;;;;;;39.43;29.43;;;5.30;66.90;;;;;;5067785;28;20184;-87
2023/03/04 11:37:02;;;;;;;39.00;28.37;;;5.20;68.00;;;;;;5066428;28;20216;-87
2023/03/04 11:39:52;;;;;;;42.00;29.50;;;5.30;67.60;;;;;;5068183;28;20207;-83
2023/03/04 11:42:39;;;;;;;47.30;30.53;;;5.50;66.50;;;;;;5067416;28;20204;-86
2023/03/04 11:45:40;;;;;;;37.77;27.33;;;5.50;66.40;;;;;;5066785;28;20161;-87
2023/03/04 11:48:28;;;;;;;37.13;28.50;;;5.60;65.50;;;;;;5062825;28;20195;-86
2023/03/04 11:51:10;;;;;;;38.63;27.70;;;5.70;65.00;;;;;;5050327;28;20242;-86
2023/03/04 11:53:57;;;;;;;37.60;25.47;;;5.70;65.50;;;;;;5068183;28;20262;-85
2023/03/04 11:56:31;;;;;;;33.57;23.77;;;5.70;64.00;;;;;;5066141;28;20180;-86
2023/03/04 11:59:12;;;;;;;36.33;25.07;;;5.70;63.60;;;;;;5064130;28;20200;-86
2023/03/04 12:01:59;;;;;;;33.07;26.03;;;5.60;63.90;;;;;;5048512;28;20181;-86
2023/03/04 12:04:59;;;;;;;31.83;23.83;;;5.60;64.40;;;;;;5049549;28;20239;-87
2023/03/04 12:07:56;;;;;;;45.00;26.83;;;5.70;64.30;;;;;;5024307;28;20192;-86
2023/03/04 12:10:29;;;;;;;36.97;23.97;;;5.70;64.80;;;;;;5056880;28;20235;-88
2023/03/04 12:13:00;;;;;;;35.50;24.67;;;5.80;63.90;;;;;;5066550;28;20200;-85
2023/03/04 12:15:52;;;;;;;37.37;24.23;;;5.80;63.60;;;;;;5063520;28;20173;-84
2023/03/04 12:18:33;;;;;;;37.90;24.93;;;5.70;63.90;;;;;;5014557;28;20192;-84
2023/03/04 12:21:02;;;;;;;31.07;24.63;;;5.70;64.70;;;;;;5065605;28;20759;-84
2023/03/04 12:23:49;;;;;;;37.00;24.70;;;5.60;65.40;;;;;;5066007;28;20204;-84
2023/03/04 12:26:52;;;;;;;32.30;23.03;;;5.80;64.60;;;;;;5065914;28;20164;-85
2023/03/04 12:29:42;;;;;;;34.90;24.33;;;5.90;63.40;;;;;;5067756;28;20235;-86
2023/03/04 12:32:13;;;;;;;35.53;23.37;;;5.60;64.30;;;;;;5031713;28;20212;-85
2023/03/04 12:35:11;;;;;;;33.07;24.47;;;5.50;65.20;;;;;;5097412;28;20273;-85
2023/03/04 12:37:57;;;;;;;32.30;24.13;;;5.80;65.00;;;;;;5104701;28;20186;-86
2023/03/04 12:40:32;;;;;;;37.17;26.17;;;6.00;63.80;;;;;;5104405;28;20277;-85
2023/03/04 12:43:06;;;;;;;34.77;26.10;;;6.00;63.80;;;;;;5095071;28;20187;-85
2023/03/04 12:45:45;;;;;;;32.03;24.60;;;5.60;65.10;;;;;;5082698;28;20210;-85
2023/03/04 12:48:21;;;;;;;33.87;24.57;;;5.90;64.50;;;;;;5082965;28;20160;-84